sensor_id;sensor_type;location;lat;lon;timestamp;pressure;altitude;pressure_sealevel;temperature;humidity
66381;BME280;53177;52.648;1.214;2024-03-08T00:02:15;101163.00;;;5.45;100.00
66381;BME280;53177;52.648;1.214;2024-03-08T00:04:40;101164.75;;;5.41;100.00
66381;BME280;53177;52.648;1.214;2024-03-08T00:07:05;101165.59;;;5.40;100.00
66381;BME280;53177;52.648;1.214;2024-03-08T00:09:32;101163.00;;;5.38;100.00
66381;BME280;53177;52.648;1.214;2024-03-08T00:11:57;101159.53;;;5.46;100.00
66381;BME280;53177;52.648;1.214;2024-03-08T00:14:23;101163.88;;;5.44;100.00
66381;BME280;53177;52.648;1.214;2024-03-08T00:16:48;101155.16;;;5.46;100.00
66381;BME280;53177;52.648;1.214;2024-03-08T00:19:14;101156.88;;;5.41;100.00
66381;BME280;53177;52.648;1.214;2024-03-08T00:21:39;101159.50;;;5.41;100.00
66381;BME280;53177;52.648;1.214;2024-03-08T00:24:05;101154.25;;;5.41;100.00
66381;BME280;53177;52.648;1.214;2024-03-08T00:26:30;101149.94;;;5.46;100.00
66381;BME280;53177;52.648;1.214;2024-03-08T00:28:55;101153.41;;;5.42;100.00
66381;BME280;53177;52.648;1.214;2024-03-08T00:31:21;101150.75;;;5.37;100.00
66381;BME280;53177;52.648;1.214;2024-03-08T00:33:47;101150.75;;;5.34;100.00
66381;BME280;53177;52.648;1.214;2024-03-08T00:36:12;101147.25;;;5.35;100.00
66381;BME280;53177;52.648;1.214;2024-03-08T00:38:37;101155.13;;;5.40;100.00
66381;BME280;53177;52.648;1.214;2024-03-08T00:41:03;101148.97;;;5.36;100.00
66381;BME280;53177;52.648;1.214;2024-03-08T00:43:28;101147.25;;;5.38;100.00
66381;BME280;53177;52.648;1.214;2024-03-08T00:45:55;101146.38;;;5.39;100.00
66381;BME280;53177;52.648;1.214;2024-03-08T00:48:21;101140.28;;;5.39;100.00
66381;BME280;53177;52.648;1.214;2024-03-08T00:50:46;101138.50;;;5.38;100.00
66381;BME280;53177;52.648;1.214;2024-03-08T00:53:12;101130.63;;;5.39;100.00
66381;BME280;53177;52.648;1.214;2024-03-08T00:55:38;101135.00;;;5.36;100.00
66381;BME280;53177;52.648;1.214;2024-03-08T00:58:04;101128.00;;;5.36;100.00
66381;BME280;53177;52.648;1.214;2024-03-08T01:00:29;101132.38;;;5.36;100.00
66381;BME280;53177;52.648;1.214;2024-03-08T01:02:55;101131.50;;;5.37;100.00
66381;BME280;53177;52.648;1.214;2024-03-08T01:05:21;101126.28;;;5.38;100.00
66381;BME280;53177;52.648;1.214;2024-03-08T01:07:46;101117.53;;;5.39;100.00
66381;BME280;53177;52.648;1.214;2024-03-08T01:10:12;101116.66;;;5.44;100.00
66381;BME280;53177;52.648;1.214;2024-03-08T01:12:38;101111.44;;;5.42;100.00
66381;BME280;53177;52.648;1.214;2024-03-08T01:15:04;101106.19;;;5.44;100.00
66381;BME280;53177;52.648;1.214;2024-03-08T01:17:30;101100.06;;;5.42;100.00
66381;BME280;53177;52.648;1.214;2024-03-08T01:19:56;101092.22;;;5.43;100.00
66381;BME280;53177;52.648;1.214;2024-03-08T01:22:21;101089.59;;;5.43;100.00
66381;BME280;53177;52.648;1.214;2024-03-08T01:24:48;101086.94;;;5.40;100.00
66381;BME280;53177;52.648;1.214;2024-03-08T01:27:14;101080.81;;;5.41;100.00
66381;BME280;53177;52.648;1.214;2024-03-08T01:29:39;101081.72;;;5.42;100.00
66381;BME280;53177;52.648;1.214;2024-03-08T01:32:05;101074.72;;;5.40;100.00
66381;BME280;53177;52.648;1.214;2024-03-08T01:34:31;101064.22;;;5.42;100.00
66381;BME280;53177;52.648;1.214;2024-03-08T01:36:58;101059.84;;;5.44;100.00
66381;BME280;53177;52.648;1.214;2024-03-08T01:39:24;101062.47;;;5.47;100.00
66381;BME280;53177;52.648;1.214;2024-03-08T01:41:49;101061.59;;;5.44;100.00
66381;BME280;53177;52.648;1.214;2024-03-08T01:44:15;101055.50;;;5.42;100.00
66381;BME280;53177;52.648;1.214;2024-03-08T01:46:47;101047.63;;;5.42;100.00
66381;BME280;53177;52.648;1.214;2024-03-08T01:49:13;101046.72;;;5.39;100.00
66381;BME280;53177;52.648;1.214;2024-03-08T01:51:40;101040.59;;;5.36;100.00
66381;BME280;53177;52.648;1.214;2024-03-08T01:54:06;101042.38;;;5.38;100.00
66381;BME280;53177;52.648;1.214;2024-03-08T01:56:35;101036.22;;;5.36;100.00
66381;BME280;53177;52.648;1.214;2024-03-08T01:59:01;101031.88;;;5.35;100.00
66381;BME280;53177;52.648;1.214;2024-03-08T02:01:27;101037.09;;;5.37;100.00
66381;BME280;53177;52.648;1.214;2024-03-08T02:03:52;101026.63;;;5.38;100.00
66381;BME280;53177;52.648;1.214;2024-03-08T02:06:18;101017.03;;;5.42;100.00
66381;BME280;53177;52.648;1.214;2024-03-08T02:08:44;101024.00;;;5.38;100.00
66381;BME280;53177;52.648;1.214;2024-03-08T02:11:10;101022.25;;;5.40;100.00
66381;BME280;53177;52.648;1.214;2024-03-08T02:13:36;101010.91;;;5.42;100.00
66381;BME280;53177;52.648;1.214;2024-03-08T02:16:02;101022.25;;;5.37;100.00
66381;BME280;53177;52.648;1.214;2024-03-08T02:18:30;101015.28;;;5.41;100.00
66381;BME280;53177;52.648;1.214;2024-03-08T02:21:01;101007.38;;;5.39;100.00
66381;BME280;53177;52.648;1.214;2024-03-08T02:23:30;101006.50;;;5.36;100.00
66381;BME280;53177;52.648;1.214;2024-03-08T02:25:56;101001.25;;;5.36;100.00
66381;BME280;53177;52.648;1.214;2024-03-08T02:28:23;101003.88;;;5.36;100.00
66381;BME280;53177;52.648;1.214;2024-03-08T02:30:50;100993.41;;;5.34;100.00
66381;BME280;53177;52.648;1.214;2024-03-08T02:33:17;101001.25;;;5.30;100.00
66381;BME280;53177;52.648;1.214;2024-03-08T02:35:43;100984.63;;;5.32;100.00
66381;BME280;53177;52.648;1.214;2024-03-08T02:38:19;100990.75;;;5.27;100.00
66381;BME280;53177;52.648;1.214;2024-03-08T02:40:46;100976.78;;;5.26;100.00
66381;BME280;53177;52.648;1.214;2024-03-08T02:43:12;100978.50;;;5.29;100.00
66381;BME280;53177;52.648;1.214;2024-03-08T02:45:39;100974.16;;;5.28;100.00
66381;BME280;53177;52.648;1.214;2024-03-08T02:48:07;100966.31;;;5.31;100.00
66381;BME280;53177;52.648;1.214;2024-03-08T02:50:33;100969.78;;;5.24;100.00
66381;BME280;53177;52.648;1.214;2024-03-08T02:53:03;100965.41;;;5.23;100.00
66381;BME280;53177;52.648;1.214;2024-03-08T02:55:29;100949.66;;;5.20;100.00
66381;BME280;53177;52.648;1.214;2024-03-08T02:57:55;100952.28;;;5.17;100.00
66381;BME280;53177;52.648;1.214;2024-03-08T03:00:21;100943.53;;;5.15;100.00
66381;BME280;53177;52.648;1.214;2024-03-08T03:02:48;100950.53;;;5.17;100.00
66381;BME280;53177;52.648;1.214;2024-03-08T03:05:14;100938.31;;;5.13;100.00
66381;BME280;53177;52.648;1.214;2024-03-08T03:07:39;100942.66;;;5.14;100.00
66381;BME280;53177;52.648;1.214;2024-03-08T03:10:05;100932.19;;;5.16;100.00
66381;BME280;53177;52.648;1.214;2024-03-08T03:12:32;100926.03;;;5.11;100.00
66381;BME280;53177;52.648;1.214;2024-03-08T03:14:59;100929.56;;;5.10;100.00
66381;BME280;53177;52.648;1.214;2024-03-08T03:17:24;100931.28;;;5.09;100.00
66381;BME280;53177;52.648;1.214;2024-03-08T03:19:50;100919.94;;;5.18;100.00
66381;BME280;53177;52.648;1.214;2024-03-08T03:22:17;100922.56;;;5.12;100.00
66381;BME280;53177;52.648;1.214;2024-03-08T03:24:43;100918.19;;;5.11;100.00
66381;BME280;53177;52.648;1.214;2024-03-08T03:27:09;100922.56;;;5.12;100.00
66381;BME280;53177;52.648;1.214;2024-03-08T03:29:40;100918.19;;;5.06;100.00
66381;BME280;53177;52.648;1.214;2024-03-08T03:32:08;100911.19;;;5.02;100.00
66381;BME280;53177;52.648;1.214;2024-03-08T03:34:34;100908.56;;;5.02;100.00
66381;BME280;53177;52.648;1.214;2024-03-08T03:37:03;100905.94;;;5.04;100.00
66381;BME280;53177;52.648;1.214;2024-03-08T03:39:29;100899.81;;;5.05;100.00
66381;BME280;53177;52.648;1.214;2024-03-08T03:41:58;100904.16;;;5.03;100.00
66381;BME280;53177;52.648;1.214;2024-03-08T03:44:24;100903.28;;;4.99;100.00
66381;BME280;53177;52.648;1.214;2024-03-08T03:46:49;100894.56;;;5.00;100.00
66381;BME280;53177;52.648;1.214;2024-03-08T03:49:16;100905.06;;;5.02;100.00
66381;BME280;53177;52.648;1.214;2024-03-08T03:51:42;100899.81;;;4.97;100.00
66381;BME280;53177;52.648;1.214;2024-03-08T03:54:08;100907.66;;;5.00;100.00
66381;BME280;53177;52.648;1.214;2024-03-08T03:56:33;100905.06;;;4.99;100.00
66381;BME280;53177;52.648;1.214;2024-03-08T03:58:58;100898.94;;;5.01;100.00
66381;BME280;53177;52.648;1.214;2024-03-08T04:01:24;100892.81;;;4.98;100.00
66381;BME280;53177;52.648;1.214;2024-03-08T04:03:49;100896.31;;;5.01;100.00
66381;BME280;53177;52.648;1.214;2024-03-08T04:06:15;100887.56;;;4.99;100.00
66381;BME280;53177;52.648;1.214;2024-03-08T04:08:40;100886.72;;;4.99;100.00
66381;BME280;53177;52.648;1.214;2024-03-08T04:11:07;100880.56;;;4.92;100.00
66381;BME280;53177;52.648;1.214;2024-03-08T04:13:34;100884.06;;;4.94;100.00
66381;BME280;53177;52.648;1.214;2024-03-08T04:15:59;100880.59;;;4.94;100.00
66381;BME280;53177;52.648;1.214;2024-03-08T04:18:25;100874.47;;;4.93;100.00
66381;BME280;53177;52.648;1.214;2024-03-08T04:20:50;100871.84;;;4.93;100.00
66381;BME280;53177;52.648;1.214;2024-03-08T04:23:16;100870.97;;;4.93;100.00
66381;BME280;53177;52.648;1.214;2024-03-08T04:25:43;100863.97;;;4.88;100.00
66381;BME280;53177;52.648;1.214;2024-03-08T04:28:08;100863.97;;;4.88;100.00
66381;BME280;53177;52.648;1.214;2024-03-08T04:30:40;100870.97;;;4.89;100.00
66381;BME280;53177;52.648;1.214;2024-03-08T04:33:05;100860.47;;;4.86;100.00
66381;BME280;53177;52.648;1.214;2024-03-08T04:35:32;100862.22;;;4.87;100.00
66381;BME280;53177;52.648;1.214;2024-03-08T04:37:57;100856.09;;;4.82;100.00
66381;BME280;53177;52.648;1.214;2024-03-08T04:40:23;100855.25;;;4.89;100.00
66381;BME280;53177;52.648;1.214;2024-03-08T04:42:49;100860.47;;;4.86;100.00
66381;BME280;53177;52.648;1.214;2024-03-08T04:45:16;100860.47;;;4.86;100.00
66381;BME280;53177;52.648;1.214;2024-03-08T04:47:41;100851.75;;;4.90;100.00
66381;BME280;53177;52.648;1.214;2024-03-08T04:50:07;100848.25;;;4.87;100.00
66381;BME280;53177;52.648;1.214;2024-03-08T04:52:34;100847.38;;;4.83;100.00
66381;BME280;53177;52.648;1.214;2024-03-08T04:54:59;100845.63;;;4.82;100.00
66381;BME280;53177;52.648;1.214;2024-03-08T04:57:24;100847.38;;;4.83;100.00
66381;BME280;53177;52.648;1.214;2024-03-08T04:59:50;100840.41;;;4.84;100.00
66381;BME280;53177;52.648;1.214;2024-03-08T05:02:16;100838.63;;;4.84;100.00
66381;BME280;53177;52.648;1.214;2024-03-08T05:04:43;100839.50;;;4.85;100.00
66381;BME280;53177;52.648;1.214;2024-03-08T05:07:08;100833.41;;;4.86;100.00
66381;BME280;53177;52.648;1.214;2024-03-08T05:09:33;100829.91;;;4.85;100.00
66381;BME280;53177;52.648;1.214;2024-03-08T05:12:01;100825.53;;;4.83;100.00
66381;BME280;53177;52.648;1.214;2024-03-08T05:14:26;100827.28;;;4.84;100.00
66381;BME280;53177;52.648;1.214;2024-03-08T05:16:52;100822.91;;;4.86;100.00
66381;BME280;53177;52.648;1.214;2024-03-08T05:19:18;100815.03;;;4.81;100.00
66381;BME280;53177;52.648;1.214;2024-03-08T05:21:45;100808.94;;;4.82;100.00
66381;BME280;53177;52.648;1.214;2024-03-08T05:24:11;100816.75;;;4.73;100.00
66381;BME280;53177;52.648;1.214;2024-03-08T05:26:36;100808.91;;;4.75;100.00
66381;BME280;53177;52.648;1.214;2024-03-08T05:29:04;100808.91;;;4.72;100.00
66381;BME280;53177;52.648;1.214;2024-03-08T05:31:38;100815.91;;;4.77;100.00
66381;BME280;53177;52.648;1.214;2024-03-08T05:34:07;100806.31;;;4.75;100.00
66381;BME280;53177;52.648;1.214;2024-03-08T05:36:35;100815.91;;;4.74;100.00
66381;BME280;53177;52.648;1.214;2024-03-08T05:39:00;100806.31;;;4.76;100.00
66381;BME280;53177;52.648;1.214;2024-03-08T05:41:26;100808.06;;;4.76;100.00
66381;BME280;53177;52.648;1.214;2024-03-08T05:43:51;100807.19;;;4.75;100.00
66381;BME280;53177;52.648;1.214;2024-03-08T05:46:17;100798.44;;;4.70;100.00
66381;BME280;53177;52.648;1.214;2024-03-08T05:48:43;100798.44;;;4.70;100.00
66381;BME280;53177;52.648;1.214;2024-03-08T05:51:09;100798.44;;;4.67;100.00
66381;BME280;53177;52.648;1.214;2024-03-08T05:53:35;100797.56;;;4.68;100.00
66381;BME280;53177;52.648;1.214;2024-03-08T05:56:00;100787.94;;;4.61;100.00
66381;BME280;53177;52.648;1.214;2024-03-08T05:58:27;100789.66;;;4.55;100.00
66381;BME280;53177;52.648;1.214;2024-03-08T06:00:55;100790.50;;;4.48;100.00
66381;BME280;53177;52.648;1.214;2024-03-08T06:03:21;100787.91;;;4.43;100.00
66381;BME280;53177;52.648;1.214;2024-03-08T06:05:48;100786.13;;;4.43;100.00
66381;BME280;53177;52.648;1.214;2024-03-08T06:08:14;100781.75;;;4.36;100.00
66381;BME280;53177;52.648;1.214;2024-03-08T06:10:40;100779.13;;;4.32;100.00
66381;BME280;53177;52.648;1.214;2024-03-08T06:13:06;100781.75;;;4.32;100.00
66381;BME280;53177;52.648;1.214;2024-03-08T06:15:31;100783.47;;;4.27;100.00
66381;BME280;53177;52.648;1.214;2024-03-08T06:17:57;100777.31;;;4.19;100.00
66381;BME280;53177;52.648;1.214;2024-03-08T06:20:23;100766.84;;;4.16;100.00
66381;BME280;53177;52.648;1.214;2024-03-08T06:22:51;100770.31;;;4.12;100.00
66381;BME280;53177;52.648;1.214;2024-03-08T06:25:17;100773.81;;;4.09;100.00
66381;BME280;53177;52.648;1.214;2024-03-08T06:27:42;100772.94;;;4.09;100.00
66381;BME280;53177;52.648;1.214;2024-03-08T06:30:09;100772.03;;;4.02;100.00
66381;BME280;53177;52.648;1.214;2024-03-08T06:32:35;100769.41;;;4.04;100.00
66381;BME280;53177;52.648;1.214;2024-03-08T06:35:05;100765.06;;;4.03;100.00
66381;BME280;53177;52.648;1.214;2024-03-08T06:37:34;100765.06;;;4.03;100.00
66381;BME280;53177;52.648;1.214;2024-03-08T06:40:00;100767.63;;;3.95;100.00
66381;BME280;53177;52.648;1.214;2024-03-08T06:42:26;100762.41;;;3.98;100.00
66381;BME280;53177;52.648;1.214;2024-03-08T06:44:52;100764.19;;;4.05;100.00
66381;BME280;53177;52.648;1.214;2024-03-08T06:47:20;100763.31;;;4.02;100.00
66381;BME280;53177;52.648;1.214;2024-03-08T06:49:46;100768.50;;;3.91;100.00
66381;BME280;53177;52.648;1.214;2024-03-08T06:52:11;100763.25;;;3.88;100.00
66381;BME280;53177;52.648;1.214;2024-03-08T06:54:37;100757.16;;;3.90;100.00
66381;BME280;53177;52.648;1.214;2024-03-08T06:57:03;100765.00;;;3.93;100.00
66381;BME280;53177;52.648;1.214;2024-03-08T06:59:29;100761.50;;;3.90;100.00
66381;BME280;53177;52.648;1.214;2024-03-08T07:01:54;100760.63;;;3.96;100.00
66381;BME280;53177;52.648;1.214;2024-03-08T07:04:20;100770.25;;;4.00;100.00
66381;BME280;53177;52.648;1.214;2024-03-08T07:06:47;100765.84;;;3.92;100.00
66381;BME280;53177;52.648;1.214;2024-03-08T07:09:15;100769.38;;;3.98;100.00
66381;BME280;53177;52.648;1.214;2024-03-08T07:11:42;100767.59;;;3.89;100.00
66381;BME280;53177;52.648;1.214;2024-03-08T07:14:07;100767.56;;;3.86;100.00
66381;BME280;53177;52.648;1.214;2024-03-08T07:16:34;100767.59;;;3.92;100.00
66381;BME280;53177;52.648;1.214;2024-03-08T07:19:03;100765.88;;;3.94;100.00
66381;BME280;53177;52.648;1.214;2024-03-08T07:21:28;100759.81;;;4.03;100.00
66381;BME280;53177;52.648;1.214;2024-03-08T07:23:54;100762.41;;;3.95;100.00
66381;BME280;53177;52.648;1.214;2024-03-08T07:26:25;100761.56;;;4.05;100.00
66381;BME280;53177;52.648;1.214;2024-03-08T07:28:51;100752.84;;;4.11;100.00
66381;BME280;53177;52.648;1.214;2024-03-08T07:31:17;100762.50;;;4.16;100.00
66381;BME280;53177;52.648;1.214;2024-03-08T07:33:52;100752.03;;;4.13;100.00
66381;BME280;53177;52.648;1.214;2024-03-08T07:36:19;100757.28;;;4.21;100.00
66381;BME280;53177;52.648;1.214;2024-03-08T07:38:44;100752.91;;;4.21;100.00
66381;BME280;53177;52.648;1.214;2024-03-08T07:41:12;100750.28;;;4.23;100.00
66381;BME280;53177;52.648;1.214;2024-03-08T07:43:38;100747.69;;;4.24;100.00
66381;BME280;53177;52.648;1.214;2024-03-08T07:46:04;100745.94;;;4.29;100.00
66381;BME280;53177;52.648;1.214;2024-03-08T07:48:29;100741.59;;;4.31;100.00
66381;BME280;53177;52.648;1.214;2024-03-08T07:50:56;100741.59;;;4.34;100.00
66381;BME280;53177;52.648;1.214;2024-03-08T07:53:21;100735.53;;;4.43;100.00
66381;BME280;53177;52.648;1.214;2024-03-08T07:55:47;100733.78;;;4.47;100.00
66381;BME280;53177;52.648;1.214;2024-03-08T07:58:13;100728.53;;;4.51;100.00
66381;BME280;53177;52.648;1.214;2024-03-08T08:00:38;100723.31;;;4.53;100.00
66381;BME280;53177;52.648;1.214;2024-03-08T08:03:04;100720.69;;;4.59;100.00
66381;BME280;53177;52.648;1.214;2024-03-08T08:05:30;100716.34;;;4.62;100.00
66381;BME280;53177;52.648;1.214;2024-03-08T08:08:00;100717.22;;;4.67;100.00
66381;BME280;53177;52.648;1.214;2024-03-08T08:10:28;100715.50;;;4.68;100.00
66381;BME280;53177;52.648;1.214;2024-03-08T08:12:54;100715.47;;;4.77;100.00
66381;BME280;53177;52.648;1.214;2024-03-08T08:15:20;100708.53;;;4.79;100.00
66381;BME280;53177;52.648;1.214;2024-03-08T08:17:45;100704.13;;;4.88;100.00
66381;BME280;53177;52.648;1.214;2024-03-08T08:20:12;100694.53;;;4.94;100.00
66381;BME280;53177;52.648;1.214;2024-03-08T08:22:42;100700.66;;;5.02;100.00
66381;BME280;53177;52.648;1.214;2024-03-08T08:25:08;100697.16;;;5.06;100.00
66381;BME280;53177;52.648;1.214;2024-03-08T08:27:34;100698.88;;;5.07;100.00
66381;BME280;53177;52.648;1.214;2024-03-08T08:30:02;100691.91;;;5.03;100.00
66381;BME280;53177;52.648;1.214;2024-03-08T08:32:29;100692.78;;;5.00;100.00
66381;BME280;53177;52.648;1.214;2024-03-08T08:34:55;100683.19;;;5.04;100.00
66381;BME280;53177;52.648;1.214;2024-03-08T08:37:21;100683.19;;;5.08;100.00
66381;BME280;53177;52.648;1.214;2024-03-08T08:39:46;100678.78;;;5.10;100.00
66381;BME280;53177;52.648;1.214;2024-03-08T08:42:11;100679.66;;;5.24;100.00
66381;BME280;53177;52.648;1.214;2024-03-08T08:44:37;100677.06;;;5.17;100.00
66381;BME280;53177;52.648;1.214;2024-03-08T08:47:03;100675.31;;;5.13;100.00
66381;BME280;53177;52.648;1.214;2024-03-08T08:49:29;100677.94;;;5.17;100.00
66381;BME280;53177;52.648;1.214;2024-03-08T08:51:55;100664.81;;;5.16;100.00
66381;BME280;53177;52.648;1.214;2024-03-08T08:54:23;100671.81;;;5.17;100.00
66381;BME280;53177;52.648;1.214;2024-03-08T08:56:50;100669.19;;;5.27;100.00
66381;BME280;53177;52.648;1.214;2024-03-08T08:59:16;100668.28;;;5.30;100.00
66381;BME280;53177;52.648;1.214;2024-03-08T09:01:45;100663.91;;;5.26;100.00
66381;BME280;53177;52.648;1.214;2024-03-08T09:04:12;100658.66;;;5.33;100.00
66381;BME280;53177;52.648;1.214;2024-03-08T09:06:38;100656.88;;;5.48;100.00
66381;BME280;53177;52.648;1.214;2024-03-08T09:09:06;100655.09;;;5.59;100.00
66381;BME280;53177;52.648;1.214;2024-03-08T09:11:34;100640.13;;;5.80;100.00
66381;BME280;53177;52.648;1.214;2024-03-08T09:13:59;100644.47;;;5.92;100.00
66381;BME280;53177;52.648;1.214;2024-03-08T09:16:25;100640.84;;;6.16;100.00
66381;BME280;53177;52.648;1.214;2024-03-08T09:18:51;100648.59;;;6.39;100.00
66381;BME280;53177;52.648;1.214;2024-03-08T09:21:17;100637.97;;;6.54;100.00
66381;BME280;53177;52.648;1.214;2024-03-08T09:23:42;100637.13;;;6.49;100.00
66381;BME280;53177;52.648;1.214;2024-03-08T09:26:10;100622.22;;;6.52;100.00
66381;BME280;53177;52.648;1.214;2024-03-08T09:28:38;100630.25;;;6.31;100.00
66381;BME280;53177;52.648;1.214;2024-03-08T09:31:04;100621.41;;;6.46;100.00
66381;BME280;53177;52.648;1.214;2024-03-08T09:33:31;100616.13;;;6.50;100.00
66381;BME280;53177;52.648;1.214;2024-03-08T09:35:56;100620.25;;;6.77;100.00
66381;BME280;53177;52.648;1.214;2024-03-08T09:38:25;100625.31;;;6.95;99.59
66381;BME280;53177;52.648;1.214;2024-03-08T09:40:51;100618.28;;;7.02;97.54
66381;BME280;53177;52.648;1.214;2024-03-08T09:43:18;100612.19;;;6.98;96.90
66381;BME280;53177;52.648;1.214;2024-03-08T09:45:45;100609.47;;;7.03;94.74
66381;BME280;53177;52.648;1.214;2024-03-08T09:48:12;100610.50;;;6.88;96.30
66381;BME280;53177;52.648;1.214;2024-03-08T09:50:40;100598.19;;;6.93;96.28
66381;BME280;53177;52.648;1.214;2024-03-08T09:53:06;100594.50;;;7.11;96.33
66381;BME280;53177;52.648;1.214;2024-03-08T09:55:37;100593.16;;;7.53;95.90
66381;BME280;53177;52.648;1.214;2024-03-08T09:58:05;100590.34;;;7.68;94.08
66381;BME280;53177;52.648;1.214;2024-03-08T10:00:49;100597.31;;;7.72;93.07
66381;BME280;53177;52.648;1.214;2024-03-08T10:03:15;100592.28;;;7.52;91.71
66381;BME280;53177;52.648;1.214;2024-03-08T10:05:41;100585.69;;;7.13;91.82
66381;BME280;53177;52.648;1.214;2024-03-08T10:08:07;100584.56;;;7.39;93.06
66381;BME280;53177;52.648;1.214;2024-03-08T10:10:37;100576.59;;;7.45;92.26
66381;BME280;53177;52.648;1.214;2024-03-08T10:13:09;100566.88;;;7.48;91.13
66381;BME280;53177;52.648;1.214;2024-03-08T10:15:36;100568.59;;;7.54;90.97
66381;BME280;53177;52.648;1.214;2024-03-08T10:18:01;100567.47;;;7.70;91.05
66381;BME280;53177;52.648;1.214;2024-03-08T10:20:32;100560.41;;;7.73;90.04
66381;BME280;53177;52.648;1.214;2024-03-08T10:23:02;100559.38;;;7.83;90.60
66381;BME280;53177;52.648;1.214;2024-03-08T10:25:31;100558.94;;;8.14;91.27
66381;BME280;53177;52.648;1.214;2024-03-08T10:27:57;100553.63;;;8.17;89.57
66381;BME280;53177;52.648;1.214;2024-03-08T10:30:22;100545.25;;;8.47;89.90
66381;BME280;53177;52.648;1.214;2024-03-08T10:32:48;100547.63;;;8.62;86.49
66381;BME280;53177;52.648;1.214;2024-03-08T10:35:14;100549.31;;;8.68;86.05
66381;BME280;53177;52.648;1.214;2024-03-08T10:37:46;100538.41;;;8.37;85.75
66381;BME280;53177;52.648;1.214;2024-03-08T10:40:19;100540.75;;;8.54;87.38
66381;BME280;53177;52.648;1.214;2024-03-08T10:42:53;100539.50;;;8.74;88.45
66381;BME280;53177;52.648;1.214;2024-03-08T10:45:35;100545.13;;;8.56;87.89
66381;BME280;53177;52.648;1.214;2024-03-08T10:48:24;100530.31;;;8.48;85.72
66381;BME280;53177;52.648;1.214;2024-03-08T10:50:53;100524.31;;;8.40;87.93
66381;BME280;53177;52.648;1.214;2024-03-08T10:53:20;100522.53;;;8.40;86.37
66381;BME280;53177;52.648;1.214;2024-03-08T10:55:47;100520.97;;;8.30;88.21
66381;BME280;53177;52.648;1.214;2024-03-08T10:58:12;100519.97;;;8.36;88.11
66381;BME280;53177;52.648;1.214;2024-03-08T11:00:38;100513.63;;;8.49;87.67
66381;BME280;53177;52.648;1.214;2024-03-08T11:03:04;100516.28;;;8.47;84.99
66381;BME280;53177;52.648;1.214;2024-03-08T11:05:39;100504.97;;;8.42;89.61
66381;BME280;53177;52.648;1.214;2024-03-08T11:08:18;100511.94;;;7.90;86.64
66381;BME280;53177;52.648;1.214;2024-03-08T11:10:50;100510.88;;;8.01;89.50
66381;BME280;53177;52.648;1.214;2024-03-08T11:13:41;100508.59;;;8.35;87.91
66381;BME280;53177;52.648;1.214;2024-03-08T11:16:15;100498.06;;;8.34;86.04
66381;BME280;53177;52.648;1.214;2024-03-08T11:21:36;100490.94;;;8.40;82.79
66381;BME280;53177;52.648;1.214;2024-03-08T11:24:12;100493.84;;;8.22;84.65
66381;BME280;53177;52.648;1.214;2024-03-08T11:26:38;100485.66;;;8.42;87.96
66381;BME280;53177;52.648;1.214;2024-03-08T11:32:17;100476.50;;;8.61;81.43
66381;BME280;53177;52.648;1.214;2024-03-08T11:34:46;100474.13;;;8.92;83.18
66381;BME280;53177;52.648;1.214;2024-03-08T11:37:21;100470.72;;;8.41;79.74
66381;BME280;53177;52.648;1.214;2024-03-08T11:39:54;100461.50;;;8.64;82.67
66381;BME280;53177;52.648;1.214;2024-03-08T11:42:27;100458.66;;;9.16;82.19
66381;BME280;53177;52.648;1.214;2024-03-08T11:44:53;100452.03;;;9.39;81.33
66381;BME280;53177;52.648;1.214;2024-03-08T11:47:20;100458.97;;;9.43;79.24
66381;BME280;53177;52.648;1.214;2024-03-08T11:49:46;100460.56;;;9.10;76.26
66381;BME280;53177;52.648;1.214;2024-03-08T11:52:17;100466.50;;;8.78;78.30
66381;BME280;53177;52.648;1.214;2024-03-08T11:54:51;100452.97;;;8.96;78.52
66381;BME280;53177;52.648;1.214;2024-03-08T11:57:19;100451.13;;;8.54;78.64
66381;BME280;53177;52.648;1.214;2024-03-08T11:59:54;100442.91;;;8.72;80.09
66381;BME280;53177;52.648;1.214;2024-03-08T12:02:24;100440.19;;;9.18;79.90
66381;BME280;53177;52.648;1.214;2024-03-08T12:04:59;100441.84;;;9.23;79.71
66381;BME280;53177;52.648;1.214;2024-03-08T12:07:25;100432.69;;;8.98;79.04
66381;BME280;53177;52.648;1.214;2024-03-08T12:10:18;100424.84;;;9.35;82.19
66381;BME280;53177;52.648;1.214;2024-03-08T12:12:55;100418.75;;;9.32;85.08
66381;BME280;53177;52.648;1.214;2024-03-08T12:15:23;100422.38;;;9.27;81.23
66381;BME280;53177;52.648;1.214;2024-03-08T12:17:51;100408.28;;;9.67;82.43
66381;BME280;53177;52.648;1.214;2024-03-08T12:20:24;100415.31;;;9.68;80.46
66381;BME280;53177;52.648;1.214;2024-03-08T12:22:59;100412.44;;;8.99;78.68
66381;BME280;53177;52.648;1.214;2024-03-08T12:25:32;100403.44;;;9.49;82.19
66381;BME280;53177;52.648;1.214;2024-03-08T12:28:12;100400.97;;;9.78;81.81
66381;BME280;53177;52.648;1.214;2024-03-08T12:30:46;100392.28;;;9.73;78.59
66381;BME280;53177;52.648;1.214;2024-03-08T12:33:12;100394.34;;;9.96;80.43
66381;BME280;53177;52.648;1.214;2024-03-08T12:35:38;100398.44;;;10.07;79.54
66381;BME280;53177;52.648;1.214;2024-03-08T12:38:03;100390.63;;;10.03;77.24
66381;BME280;53177;52.648;1.214;2024-03-08T12:40:32;100383.22;;;9.83;77.01
66381;BME280;53177;52.648;1.214;2024-03-08T12:43:00;100381.25;;;9.56;77.70
66381;BME280;53177;52.648;1.214;2024-03-08T12:45:26;100378.25;;;9.71;81.21
66381;BME280;53177;52.648;1.214;2024-03-08T12:47:55;100376.97;;;9.52;78.77
66381;BME280;53177;52.648;1.214;2024-03-08T12:50:23;100370.78;;;9.87;79.57
66381;BME280;53177;52.648;1.214;2024-03-08T12:52:52;100363.34;;;9.33;77.41
66381;BME280;53177;52.648;1.214;2024-03-08T12:55:21;100360.94;;;9.59;82.11
66381;BME280;53177;52.648;1.214;2024-03-08T12:57:46;100362.03;;;9.86;81.45
66381;BME280;53177;52.648;1.214;2024-03-08T13:00:12;100357.00;;;9.75;75.75